sensor_id;sensor_type;location;lat;lon;timestamp;pressure;altitude;pressure_sealevel;temperature
74536;BMP180;63013;51.104;-115.370;2023-06-24T00:00:21;86786.80;;;22.28
74536;BMP180;63013;51.104;-115.370;2023-06-24T00:02:49;86784.40;;;22.30
74536;BMP180;63013;51.104;-115.370;2023-06-24T00:05:17;86784.40;;;22.30
74536;BMP180;63013;51.104;-115.370;2023-06-24T00:07:44;86790.40;;;22.30
74536;BMP180;63013;51.104;-115.370;2023-06-24T00:10:14;86785.20;;;22.30
74536;BMP180;63013;51.104;-115.370;2023-06-24T00:12:41;86784.60;;;22.30
74536;BMP180;63013;51.104;-115.370;2023-06-24T00:15:08;86781.20;;;22.30
74536;BMP180;63013;51.104;-115.370;2023-06-24T00:17:37;86783.80;;;22.32
74536;BMP180;63013;51.104;-115.370;2023-06-24T00:20:05;86783.00;;;22.36
74536;BMP180;63013;51.104;-115.370;2023-06-24T00:22:35;86782.40;;;22.40
74536;BMP180;63013;51.104;-115.370;2023-06-24T00:25:02;86780.20;;;22.40
74536;BMP180;63013;51.104;-115.370;2023-06-24T00:27:31;86778.20;;;22.40
74536;BMP180;63013;51.104;-115.370;2023-06-24T00:29:59;86775.40;;;22.40
74536;BMP180;63013;51.104;-115.370;2023-06-24T00:32:25;86775.20;;;22.40
74536;BMP180;63013;51.104;-115.370;2023-06-24T00:34:53;86773.00;;;22.40
74536;BMP180;63013;51.104;-115.370;2023-06-24T00:37:23;86771.00;;;22.40
74536;BMP180;63013;51.104;-115.370;2023-06-24T00:39:50;86769.40;;;22.46
74536;BMP180;63013;51.104;-115.370;2023-06-24T00:42:18;86767.20;;;22.46
74536;BMP180;63013;51.104;-115.370;2023-06-24T00:44:45;86764.60;;;22.50
74536;BMP180;63013;51.104;-115.370;2023-06-24T00:47:12;86765.60;;;22.50
74536;BMP180;63013;51.104;-115.370;2023-06-24T00:49:39;86768.60;;;22.50
74536;BMP180;63013;51.104;-115.370;2023-06-24T00:52:07;86770.00;;;22.50
74536;BMP180;63013;51.104;-115.370;2023-06-24T00:54:37;86769.20;;;22.50
74536;BMP180;63013;51.104;-115.370;2023-06-24T00:57:04;86769.80;;;22.50
74536;BMP180;63013;51.104;-115.370;2023-06-24T00:59:31;86772.80;;;22.56
74536;BMP180;63013;51.104;-115.370;2023-06-24T01:01:59;86772.40;;;22.60
74536;BMP180;63013;51.104;-115.370;2023-06-24T01:04:34;86773.60;;;22.60
74536;BMP180;63013;51.104;-115.370;2023-06-24T01:07:02;86770.80;;;22.60
74536;BMP180;63013;51.104;-115.370;2023-06-24T01:09:31;86775.20;;;22.60
74536;BMP180;63013;51.104;-115.370;2023-06-24T01:11:59;86776.20;;;22.60
74536;BMP180;63013;51.104;-115.370;2023-06-24T01:14:26;86773.80;;;22.60
74536;BMP180;63013;51.104;-115.370;2023-06-24T01:17:09;86781.60;;;22.62
74536;BMP180;63013;51.104;-115.370;2023-06-24T01:20:04;86785.80;;;22.68
74536;BMP180;63013;51.104;-115.370;2023-06-24T01:26:19;86788.40;;;22.70
74536;BMP180;63013;51.104;-115.370;2023-06-24T01:29:23;86788.40;;;22.70
74536;BMP180;63013;51.104;-115.370;2023-06-24T01:32:23;86791.80;;;22.70
74536;BMP180;63013;51.104;-115.370;2023-06-24T01:35:05;86792.60;;;22.70
74536;BMP180;63013;51.104;-115.370;2023-06-24T01:37:53;86796.00;;;22.78
74536;BMP180;63013;51.104;-115.370;2023-06-24T01:40:44;86799.20;;;22.80
74536;BMP180;63013;51.104;-115.370;2023-06-24T01:43:15;86801.60;;;22.80
74536;BMP180;63013;51.104;-115.370;2023-06-24T01:45:49;86804.40;;;22.80
74536;BMP180;63013;51.104;-115.370;2023-06-24T01:48:25;86804.40;;;22.80
74536;BMP180;63013;51.104;-115.370;2023-06-24T01:51:30;86807.60;;;22.82
74536;BMP180;63013;51.104;-115.370;2023-06-24T01:53:57;86811.00;;;22.90
74536;BMP180;63013;51.104;-115.370;2023-06-24T01:56:27;86810.60;;;22.90
74536;BMP180;63013;51.104;-115.370;2023-06-24T01:58:58;86816.20;;;22.90
74536;BMP180;63013;51.104;-115.370;2023-06-24T02:01:28;86816.60;;;22.90
74536;BMP180;63013;51.104;-115.370;2023-06-24T02:03:57;86816.60;;;22.90
74536;BMP180;63013;51.104;-115.370;2023-06-24T02:06:26;86821.80;;;22.90
74536;BMP180;63013;51.104;-115.370;2023-06-24T02:08:56;86822.40;;;22.92
74536;BMP180;63013;51.104;-115.370;2023-06-24T02:11:26;86828.00;;;22.98
74536;BMP180;63013;51.104;-115.370;2023-06-24T02:13:55;86829.20;;;23.00
74536;BMP180;63013;51.104;-115.370;2023-06-24T02:16:23;86829.40;;;23.00
74536;BMP180;63013;51.104;-115.370;2023-06-24T02:18:51;86838.00;;;23.00
74536;BMP180;63013;51.104;-115.370;2023-06-24T02:21:19;86842.80;;;23.00
74536;BMP180;63013;51.104;-115.370;2023-06-24T02:23:48;86845.40;;;23.06
74536;BMP180;63013;51.104;-115.370;2023-06-24T02:26:16;86843.40;;;23.10
74536;BMP180;63013;51.104;-115.370;2023-06-24T02:28:45;86849.20;;;23.10
74536;BMP180;63013;51.104;-115.370;2023-06-24T02:31:14;86855.20;;;23.10
74536;BMP180;63013;51.104;-115.370;2023-06-24T02:33:42;86860.80;;;23.10
74536;BMP180;63013;51.104;-115.370;2023-06-24T02:36:09;86861.40;;;23.10
74536;BMP180;63013;51.104;-115.370;2023-06-24T02:38:37;86866.40;;;23.10
74536;BMP180;63013;51.104;-115.370;2023-06-24T02:41:04;86866.20;;;23.12
74536;BMP180;63013;51.104;-115.370;2023-06-24T02:43:32;86865.00;;;23.18
74536;BMP180;63013;51.104;-115.370;2023-06-24T02:46:05;86870.80;;;23.20
74536;BMP180;63013;51.104;-115.370;2023-06-24T02:48:35;86878.00;;;23.20
74536;BMP180;63013;51.104;-115.370;2023-06-24T02:51:05;86874.80;;;23.20
74536;BMP180;63013;51.104;-115.370;2023-06-24T02:53:34;86877.20;;;23.20
74536;BMP180;63013;51.104;-115.370;2023-06-24T02:56:01;86885.20;;;23.20
74536;BMP180;63013;51.104;-115.370;2023-06-24T02:58:30;86882.80;;;23.20
74536;BMP180;63013;51.104;-115.370;2023-06-24T03:01:01;86886.00;;;23.20
74536;BMP180;63013;51.104;-115.370;2023-06-24T03:03:35;86888.20;;;23.22
74536;BMP180;63013;51.104;-115.370;2023-06-24T03:06:03;86888.20;;;23.24
74536;BMP180;63013;51.104;-115.370;2023-06-24T03:08:31;86891.40;;;23.26
74536;BMP180;63013;51.104;-115.370;2023-06-24T03:10:59;86895.60;;;23.30
74536;BMP180;63013;51.104;-115.370;2023-06-24T03:13:26;86897.20;;;23.30
74536;BMP180;63013;51.104;-115.370;2023-06-24T03:15:53;86899.20;;;23.30
74536;BMP180;63013;51.104;-115.370;2023-06-24T03:18:20;86900.20;;;23.30
74536;BMP180;63013;51.104;-115.370;2023-06-24T03:20:47;86904.80;;;23.30
74536;BMP180;63013;51.104;-115.370;2023-06-24T03:23:14;86906.20;;;23.30
74536;BMP180;63013;51.104;-115.370;2023-06-24T03:25:41;86911.40;;;23.30
74536;BMP180;63013;51.104;-115.370;2023-06-24T03:28:09;86914.40;;;23.30
74536;BMP180;63013;51.104;-115.370;2023-06-24T03:30:36;86920.40;;;23.30
74536;BMP180;63013;51.104;-115.370;2023-06-24T03:33:03;86928.40;;;23.30
74536;BMP180;63013;51.104;-115.370;2023-06-24T03:35:30;86929.20;;;23.30
74536;BMP180;63013;51.104;-115.370;2023-06-24T03:37:59;86933.20;;;23.36
74536;BMP180;63013;51.104;-115.370;2023-06-24T03:40:26;86937.00;;;23.34
74536;BMP180;63013;51.104;-115.370;2023-06-24T03:42:53;86937.20;;;23.38
74536;BMP180;63013;51.104;-115.370;2023-06-24T03:45:20;86945.00;;;23.38
74536;BMP180;63013;51.104;-115.370;2023-06-24T03:47:47;86948.80;;;23.40
74536;BMP180;63013;51.104;-115.370;2023-06-24T03:50:14;86957.40;;;23.40
74536;BMP180;63013;51.104;-115.370;2023-06-24T03:52:41;86961.20;;;23.40
74536;BMP180;63013;51.104;-115.370;2023-06-24T03:55:10;86966.40;;;23.40
74536;BMP180;63013;51.104;-115.370;2023-06-24T03:57:37;86964.80;;;23.40
74536;BMP180;63013;51.104;-115.370;2023-06-24T04:00:05;86972.60;;;23.40
74536;BMP180;63013;51.104;-115.370;2023-06-24T04:02:39;86975.20;;;23.40
74536;BMP180;63013;51.104;-115.370;2023-06-24T04:05:09;86974.40;;;23.40
74536;BMP180;63013;51.104;-115.370;2023-06-24T04:07:37;86977.20;;;23.40
74536;BMP180;63013;51.104;-115.370;2023-06-24T04:10:05;86989.00;;;23.40
74536;BMP180;63013;51.104;-115.370;2023-06-24T04:12:36;87004.80;;;23.40
74536;BMP180;63013;51.104;-115.370;2023-06-24T04:15:06;87007.40;;;23.40
74536;BMP180;63013;51.104;-115.370;2023-06-24T04:17:34;87007.00;;;23.40
74536;BMP180;63013;51.104;-115.370;2023-06-24T04:20:00;87005.60;;;23.40
74536;BMP180;63013;51.104;-115.370;2023-06-24T04:22:30;87010.60;;;23.40
74536;BMP180;63013;51.104;-115.370;2023-06-24T04:24:57;87015.40;;;23.40
74536;BMP180;63013;51.104;-115.370;2023-06-24T04:27:25;87022.00;;;23.40
74536;BMP180;63013;51.104;-115.370;2023-06-24T04:29:52;87025.00;;;23.40
74536;BMP180;63013;51.104;-115.370;2023-06-24T04:32:19;87032.20;;;23.40
74536;BMP180;63013;51.104;-115.370;2023-06-24T04:34:45;87035.80;;;23.40
74536;BMP180;63013;51.104;-115.370;2023-06-24T04:37:12;87037.60;;;23.40
74536;BMP180;63013;51.104;-115.370;2023-06-24T04:39:39;87040.00;;;23.42
74536;BMP180;63013;51.104;-115.370;2023-06-24T04:42:06;87043.80;;;23.42
74536;BMP180;63013;51.104;-115.370;2023-06-24T04:44:33;87040.40;;;23.42
74536;BMP180;63013;51.104;-115.370;2023-06-24T04:47:00;87036.60;;;23.42
74536;BMP180;63013;51.104;-115.370;2023-06-24T04:49:27;87037.00;;;23.44
74536;BMP180;63013;51.104;-115.370;2023-06-24T04:51:55;87033.80;;;23.46
74536;BMP180;63013;51.104;-115.370;2023-06-24T04:54:23;87037.40;;;23.44
74536;BMP180;63013;51.104;-115.370;2023-06-24T04:56:50;87037.80;;;23.44
74536;BMP180;63013;51.104;-115.370;2023-06-24T04:59:19;87038.20;;;23.42
74536;BMP180;63013;51.104;-115.370;2023-06-24T05:01:46;87042.20;;;23.40
74536;BMP180;63013;51.104;-115.370;2023-06-24T05:04:13;87043.00;;;23.46
74536;BMP180;63013;51.104;-115.370;2023-06-24T05:06:40;87043.00;;;23.44
74536;BMP180;63013;51.104;-115.370;2023-06-24T05:09:07;87046.20;;;23.44
74536;BMP180;63013;51.104;-115.370;2023-06-24T05:11:35;87046.60;;;23.42
74536;BMP180;63013;51.104;-115.370;2023-06-24T05:14:02;87050.00;;;23.44
74536;BMP180;63013;51.104;-115.370;2023-06-24T05:16:29;87051.80;;;23.40
74536;BMP180;63013;51.104;-115.370;2023-06-24T05:18:56;87058.20;;;23.40
74536;BMP180;63013;51.104;-115.370;2023-06-24T05:21:23;87053.60;;;23.40
74536;BMP180;63013;51.104;-115.370;2023-06-24T05:23:51;87054.20;;;23.40
74536;BMP180;63013;51.104;-115.370;2023-06-24T05:26:18;87053.00;;;23.40
74536;BMP180;63013;51.104;-115.370;2023-06-24T05:28:44;87057.60;;;23.40
74536;BMP180;63013;51.104;-115.370;2023-06-24T05:31:11;87057.80;;;23.40
74536;BMP180;63013;51.104;-115.370;2023-06-24T05:33:39;87057.60;;;23.40
74536;BMP180;63013;51.104;-115.370;2023-06-24T05:36:06;87059.80;;;23.40
74536;BMP180;63013;51.104;-115.370;2023-06-24T05:38:33;87069.20;;;23.40
74536;BMP180;63013;51.104;-115.370;2023-06-24T05:40:59;87064.60;;;23.40
74536;BMP180;63013;51.104;-115.370;2023-06-24T05:43:29;87071.60;;;23.40
74536;BMP180;63013;51.104;-115.370;2023-06-24T05:45:56;87072.80;;;23.40
74536;BMP180;63013;51.104;-115.370;2023-06-24T05:48:23;87071.20;;;23.40
74536;BMP180;63013;51.104;-115.370;2023-06-24T05:50:50;87067.20;;;23.40
74536;BMP180;63013;51.104;-115.370;2023-06-24T05:53:17;87065.00;;;23.40
74536;BMP180;63013;51.104;-115.370;2023-06-24T05:55:44;87066.80;;;23.40
74536;BMP180;63013;51.104;-115.370;2023-06-24T05:58:11;87065.20;;;23.40
74536;BMP180;63013;51.104;-115.370;2023-06-24T06:00:38;87068.20;;;23.40
74536;BMP180;63013;51.104;-115.370;2023-06-24T06:03:05;87070.00;;;23.40
74536;BMP180;63013;51.104;-115.370;2023-06-24T06:05:32;87070.20;;;23.40
74536;BMP180;63013;51.104;-115.370;2023-06-24T06:07:59;87068.40;;;23.40
74536;BMP180;63013;51.104;-115.370;2023-06-24T06:10:26;87066.80;;;23.40
74536;BMP180;63013;51.104;-115.370;2023-06-24T06:12:53;87067.40;;;23.32
74536;BMP180;63013;51.104;-115.370;2023-06-24T06:15:20;87068.00;;;23.30
74536;BMP180;63013;51.104;-115.370;2023-06-24T06:17:47;87067.80;;;23.30
74536;BMP180;63013;51.104;-115.370;2023-06-24T06:20:14;87071.80;;;23.30
74536;BMP180;63013;51.104;-115.370;2023-06-24T06:22:41;87073.60;;;23.30
74536;BMP180;63013;51.104;-115.370;2023-06-24T06:25:09;87072.40;;;23.30
74536;BMP180;63013;51.104;-115.370;2023-06-24T06:27:36;87076.60;;;23.30
74536;BMP180;63013;51.104;-115.370;2023-06-24T06:30:04;87080.20;;;23.30
74536;BMP180;63013;51.104;-115.370;2023-06-24T06:32:31;87079.00;;;23.30
74536;BMP180;63013;51.104;-115.370;2023-06-24T06:34:58;87078.00;;;23.30
74536;BMP180;63013;51.104;-115.370;2023-06-24T06:37:25;87080.00;;;23.30
74536;BMP180;63013;51.104;-115.370;2023-06-24T06:39:52;87083.00;;;23.24
74536;BMP180;63013;51.104;-115.370;2023-06-24T06:42:19;87087.00;;;23.20
74536;BMP180;63013;51.104;-115.370;2023-06-24T06:44:46;87094.60;;;23.20
74536;BMP180;63013;51.104;-115.370;2023-06-24T06:47:13;87096.40;;;23.20
74536;BMP180;63013;51.104;-115.370;2023-06-24T06:49:40;87096.40;;;23.20
74536;BMP180;63013;51.104;-115.370;2023-06-24T06:52:07;87102.20;;;23.20
74536;BMP180;63013;51.104;-115.370;2023-06-24T06:54:35;87103.00;;;23.20
74536;BMP180;63013;51.104;-115.370;2023-06-24T06:57:05;87107.60;;;23.20
74536;BMP180;63013;51.104;-115.370;2023-06-24T06:59:32;87113.60;;;23.20
74536;BMP180;63013;51.104;-115.370;2023-06-24T07:01:59;87109.00;;;23.20
74536;BMP180;63013;51.104;-115.370;2023-06-24T07:04:26;87110.20;;;23.18
74536;BMP180;63013;51.104;-115.370;2023-06-24T07:06:53;87111.80;;;23.12
74536;BMP180;63013;51.104;-115.370;2023-06-24T07:09:20;87113.00;;;23.10
74536;BMP180;63013;51.104;-115.370;2023-06-24T07:11:47;87112.80;;;23.10
74536;BMP180;63013;51.104;-115.370;2023-06-24T07:14:14;87116.60;;;23.10
74536;BMP180;63013;51.104;-115.370;2023-06-24T07:16:41;87120.60;;;23.10
74536;BMP180;63013;51.104;-115.370;2023-06-24T07:19:08;87127.60;;;23.10
74536;BMP180;63013;51.104;-115.370;2023-06-24T07:21:35;87126.40;;;23.10
74536;BMP180;63013;51.104;-115.370;2023-06-24T07:24:02;87127.00;;;23.10
74536;BMP180;63013;51.104;-115.370;2023-06-24T07:26:29;87127.60;;;23.10
74536;BMP180;63013;51.104;-115.370;2023-06-24T07:28:58;87125.00;;;23.02
74536;BMP180;63013;51.104;-115.370;2023-06-24T07:31:25;87131.00;;;23.00
74536;BMP180;63013;51.104;-115.370;2023-06-24T07:33:52;87130.60;;;23.00
74536;BMP180;63013;51.104;-115.370;2023-06-24T07:36:19;87132.00;;;23.00
74536;BMP180;63013;51.104;-115.370;2023-06-24T07:38:46;87137.20;;;23.00
74536;BMP180;63013;51.104;-115.370;2023-06-24T07:41:13;87137.60;;;23.00
74536;BMP180;63013;51.104;-115.370;2023-06-24T07:43:41;87142.00;;;23.00
74536;BMP180;63013;51.104;-115.370;2023-06-24T07:46:08;87149.00;;;23.00
74536;BMP180;63013;51.104;-115.370;2023-06-24T07:48:35;87149.80;;;22.92
74536;BMP180;63013;51.104;-115.370;2023-06-24T07:51:02;87149.00;;;22.90
74536;BMP180;63013;51.104;-115.370;2023-06-24T07:53:29;87144.20;;;22.90
74536;BMP180;63013;51.104;-115.370;2023-06-24T07:55:56;87143.60;;;22.90
74536;BMP180;63013;51.104;-115.370;2023-06-24T07:58:23;87146.40;;;22.90
74536;BMP180;63013;51.104;-115.370;2023-06-24T08:00:50;87148.40;;;22.90
74536;BMP180;63013;51.104;-115.370;2023-06-24T08:03:17;87150.40;;;22.90
74536;BMP180;63013;51.104;-115.370;2023-06-24T08:05:44;87150.80;;;22.90
74536;BMP180;63013;51.104;-115.370;2023-06-24T08:08:11;87151.40;;;22.86
74536;BMP180;63013;51.104;-115.370;2023-06-24T08:10:38;87155.00;;;22.80
74536;BMP180;63013;51.104;-115.370;2023-06-24T08:13:05;87156.00;;;22.80
74536;BMP180;63013;51.104;-115.370;2023-06-24T08:15:32;87157.80;;;22.80
74536;BMP180;63013;51.104;-115.370;2023-06-24T08:17:59;87161.00;;;22.80
74536;BMP180;63013;51.104;-115.370;2023-06-24T08:20:27;87162.00;;;22.80
74536;BMP180;63013;51.104;-115.370;2023-06-24T08:22:54;87168.40;;;22.80
74536;BMP180;63013;51.104;-115.370;2023-06-24T08:25:20;87171.20;;;22.80
74536;BMP180;63013;51.104;-115.370;2023-06-24T08:27:48;87170.00;;;22.78
74536;BMP180;63013;51.104;-115.370;2023-06-24T08:30:15;87174.40;;;22.70
74536;BMP180;63013;51.104;-115.370;2023-06-24T08:32:42;87177.80;;;22.70
74536;BMP180;63013;51.104;-115.370;2023-06-24T08:35:10;87179.40;;;22.70
74536;BMP180;63013;51.104;-115.370;2023-06-24T08:37:37;87181.80;;;22.70
74536;BMP180;63013;51.104;-115.370;2023-06-24T08:40:05;87178.80;;;22.70
74536;BMP180;63013;51.104;-115.370;2023-06-24T08:42:33;87179.60;;;22.70
74536;BMP180;63013;51.104;-115.370;2023-06-24T08:44:59;87174.20;;;22.70
74536;BMP180;63013;51.104;-115.370;2023-06-24T08:47:28;87177.80;;;22.70
74536;BMP180;63013;51.104;-115.370;2023-06-24T08:50:12;87173.20;;;22.62
74536;BMP180;63013;51.104;-115.370;2023-06-24T08:52:51;87174.00;;;22.60
74536;BMP180;63013;51.104;-115.370;2023-06-24T08:55:22;87175.80;;;22.60
74536;BMP180;63013;51.104;-115.370;2023-06-24T08:57:50;87179.20;;;22.60
74536;BMP180;63013;51.104;-115.370;2023-06-24T09:00:18;87178.40;;;22.60
74536;BMP180;63013;51.104;-115.370;2023-06-24T09:02:45;87183.60;;;22.60
74536;BMP180;63013;51.104;-115.370;2023-06-24T09:05:12;87182.00;;;22.60
74536;BMP180;63013;51.104;-115.370;2023-06-24T09:07:39;87184.40;;;22.60
74536;BMP180;63013;51.104;-115.370;2023-06-24T09:10:06;87184.80;;;22.60
74536;BMP180;63013;51.104;-115.370;2023-06-24T09:12:35;87188.40;;;22.54
74536;BMP180;63013;51.104;-115.370;2023-06-24T09:15:03;87193.60;;;22.50
74536;BMP180;63013;51.104;-115.370;2023-06-24T09:17:31;87194.20;;;22.50
74536;BMP180;63013;51.104;-115.370;2023-06-24T09:20:08;87192.40;;;22.50
74536;BMP180;63013;51.104;-115.370;2023-06-24T09:22:40;87186.40;;;22.50
74536;BMP180;63013;51.104;-115.370;2023-06-24T09:25:08;87186.40;;;22.50
74536;BMP180;63013;51.104;-115.370;2023-06-24T09:27:35;87184.80;;;22.50
74536;BMP180;63013;51.104;-115.370;2023-06-24T09:30:21;87185.60;;;22.46
74536;BMP180;63013;51.104;-115.370;2023-06-24T09:32:50;87191.20;;;22.42
74536;BMP180;63013;51.104;-115.370;2023-06-24T09:35:23;87187.00;;;22.40
74536;BMP180;63013;51.104;-115.370;2023-06-24T09:37:55;87186.00;;;22.40
74536;BMP180;63013;51.104;-115.370;2023-06-24T09:40:23;87185.80;;;22.40
74536;BMP180;63013;51.104;-115.370;2023-06-24T09:42:54;87191.40;;;22.40
74536;BMP180;63013;51.104;-115.370;2023-06-24T09:45:30;87190.60;;;22.40
74536;BMP180;63013;51.104;-115.370;2023-06-24T09:47:58;87191.20;;;22.40
74536;BMP180;63013;51.104;-115.370;2023-06-24T09:50:25;87190.00;;;22.36
74536;BMP180;63013;51.104;-115.370;2023-06-24T09:52:53;87186.20;;;22.32
74536;BMP180;63013;51.104;-115.370;2023-06-24T09:55:24;87192.60;;;22.30
74536;BMP180;63013;51.104;-115.370;2023-06-24T09:57:54;87193.00;;;22.30
74536;BMP180;63013;51.104;-115.370;2023-06-24T10:00:21;87193.60;;;22.30
74536;BMP180;63013;51.104;-115.370;2023-06-24T10:02:49;87196.40;;;22.30
74536;BMP180;63013;51.104;-115.370;2023-06-24T10:05:16;87201.40;;;22.30
74536;BMP180;63013;51.104;-115.370;2023-06-24T10:07:44;87203.80;;;22.24
74536;BMP180;63013;51.104;-115.370;2023-06-24T10:10:11;87204.20;;;22.22
74536;BMP180;63013;51.104;-115.370;2023-06-24T10:12:40;87206.40;;;22.20
74536;BMP180;63013;51.104;-115.370;2023-06-24T10:15:07;87211.00;;;22.20
74536;BMP180;63013;51.104;-115.370;2023-06-24T10:17:35;87211.60;;;22.20
74536;BMP180;63013;51.104;-115.370;2023-06-24T10:20:06;87213.40;;;22.20
74536;BMP180;63013;51.104;-115.370;2023-06-24T10:22:33;87214.60;;;22.20
74536;BMP180;63013;51.104;-115.370;2023-06-24T10:25:06;87213.40;;;22.10
74536;BMP180;63013;51.104;-115.370;2023-06-24T10:27:39;87216.00;;;22.10
74536;BMP180;63013;51.104;-115.370;2023-06-24T10:30:17;87216.20;;;22.10
74536;BMP180;63013;51.104;-115.370;2023-06-24T10:32:45;87217.80;;;22.10
74536;BMP180;63013;51.104;-115.370;2023-06-24T10:35:28;87219.60;;;22.10
74536;BMP180;63013;51.104;-115.370;2023-06-24T10:38:00;87216.20;;;22.10
74536;BMP180;63013;51.104;-115.370;2023-06-24T10:40:42;87211.60;;;22.10
74536;BMP180;63013;51.104;-115.370;2023-06-24T10:43:26;87205.80;;;22.04
74536;BMP180;63013;51.104;-115.370;2023-06-24T10:45:58;87212.20;;;22.02
74536;BMP180;63013;51.104;-115.370;2023-06-24T10:48:25;87226.20;;;22.00
74536;BMP180;63013;51.104;-115.370;2023-06-24T10:50:52;87222.40;;;22.00
74536;BMP180;63013;51.104;-115.370;2023-06-24T10:53:21;87228.40;;;22.00
74536;BMP180;63013;51.104;-115.370;2023-06-24T10:55:49;87240.80;;;22.00
74536;BMP180;63013;51.104;-115.370;2023-06-24T10:58:16;87249.20;;;22.00
74536;BMP180;63013;51.104;-115.370;2023-06-24T11:00:44;87255.00;;;22.00
74536;BMP180;63013;51.104;-115.370;2023-06-24T11:03:15;87254.00;;;21.90
74536;BMP180;63013;51.104;-115.370;2023-06-24T11:05:48;87251.00;;;21.90
74536;BMP180;63013;51.104;-115.370;2023-06-24T11:08:16;87253.20;;;21.90
74536;BMP180;63013;51.104;-115.370;2023-06-24T11:10:48;87257.00;;;21.90
74536;BMP180;63013;51.104;-115.370;2023-06-24T11:13:15;87257.60;;;21.90
74536;BMP180;63013;51.104;-115.370;2023-06-24T11:15:47;87259.80;;;21.90
74536;BMP180;63013;51.104;-115.370;2023-06-24T11:18:14;87255.60;;;21.86
74536;BMP180;63013;51.104;-115.370;2023-06-24T11:20:41;87254.40;;;21.80
74536;BMP180;63013;51.104;-115.370;2023-06-24T11:23:12;87249.60;;;21.80
74536;BMP180;63013;51.104;-115.370;2023-06-24T11:25:42;87248.80;;;21.80
74536;BMP180;63013;51.104;-115.370;2023-06-24T11:28:18;87244.00;;;21.80
74536;BMP180;63013;51.104;-115.370;2023-06-24T11:30:45;87243.40;;;21.80
74536;BMP180;63013;51.104;-115.370;2023-06-24T11:33:12;87242.80;;;21.80
74536;BMP180;63013;51.104;-115.370;2023-06-24T11:35:39;87241.20;;;21.78
74536;BMP180;63013;51.104;-115.370;2023-06-24T11:38:06;87245.80;;;21.70
74536;BMP180;63013;51.104;-115.370;2023-06-24T11:40:35;87249.00;;;21.70
74536;BMP180;63013;51.104;-115.370;2023-06-24T11:43:02;87255.40;;;21.70
74536;BMP180;63013;51.104;-115.370;2023-06-24T11:45:32;87257.00;;;21.70
74536;BMP180;63013;51.104;-115.370;2023-06-24T11:48:03;87259.00;;;21.70
74536;BMP180;63013;51.104;-115.370;2023-06-24T11:50:31;87262.60;;;21.70
74536;BMP180;63013;51.104;-115.370;2023-06-24T11:52:58;87269.80;;;21.70
74536;BMP180;63013;51.104;-115.370;2023-06-24T11:55:27;87266.00;;;21.64
74536;BMP180;63013;51.104;-115.370;2023-06-24T11:58:02;87263.20;;;21.60
74536;BMP180;63013;51.104;-115.370;2023-06-24T12:00:39;87262.80;;;21.60
74536;BMP180;63013;51.104;-115.370;2023-06-24T12:03:13;87258.00;;;21.60
74536;BMP180;63013;51.104;-115.370;2023-06-24T12:05:40;87256.60;;;21.60
74536;BMP180;63013;51.104;-115.370;2023-06-24T12:08:12;87254.20;;;21.60
74536;BMP180;63013;51.104;-115.370;2023-06-24T12:10:44;87251.20;;;21.58
74536;BMP180;63013;51.104;-115.370;2023-06-24T12:13:11;87254.40;;;21.50
74536;BMP180;63013;51.104;-115.370;2023-06-24T12:15:39;87258.20;;;21.50
74536;BMP180;63013;51.104;-115.370;2023-06-24T12:18:06;87259.40;;;21.50
74536;BMP180;63013;51.104;-115.370;2023-06-24T12:20:34;87260.60;;;21.50
74536;BMP180;63013;51.104;-115.370;2023-06-24T12:23:03;87261.60;;;21.50
74536;BMP180;63013;51.104;-115.370;2023-06-24T12:25:30;87268.20;;;21.50
74536;BMP180;63013;51.104;-115.370;2023-06-24T12:27:58;87275.40;;;21.40
74536;BMP180;63013;51.104;-115.370;2023-06-24T12:30:28;87279.60;;;21.42
74536;BMP180;63013;51.104;-115.370;2023-06-24T12:32:55;87288.60;;;21.44
74536;BMP180;63013;51.104;-115.370;2023-06-24T12:35:23;87294.60;;;21.40
74536;BMP180;63013;51.104;-115.370;2023-06-24T12:37:53;87294.00;;;21.40
74536;BMP180;63013;51.104;-115.370;2023-06-24T12:40:20;87293.20;;;21.40
74536;BMP180;63013;51.104;-115.370;2023-06-24T12:42:46;87292.80;;;21.40
74536;BMP180;63013;51.104;-115.370;2023-06-24T12:45:14;87292.60;;;21.40
74536;BMP180;63013;51.104;-115.370;2023-06-24T12:47:41;87288.40;;;21.40
74536;BMP180;63013;51.104;-115.370;2023-06-24T12:50:08;87288.00;;;21.40
74536;BMP180;63013;51.104;-115.370;2023-06-24T12:52:36;87285.80;;;21.40
74536;BMP180;63013;51.104;-115.370;2023-06-24T12:55:03;87289.40;;;21.40
74536;BMP180;63013;51.104;-115.370;2023-06-24T12:57:31;87285.60;;;21.40
74536;BMP180;63013;51.104;-115.370;2023-06-24T12:59:58;87289.60;;;21.40
74536;BMP180;63013;51.104;-115.370;2023-06-24T13:02:25;87290.00;;;21.34
74536;BMP180;63013;51.104;-115.370;2023-06-24T13:04:52;87288.60;;;21.30
74536;BMP180;63013;51.104;-115.370;2023-06-24T13:07:19;87286.80;;;21.30
74536;BMP180;63013;51.104;-115.370;2023-06-24T13:09:46;87291.40;;;21.30
74536;BMP180;63013;51.104;-115.370;2023-06-24T13:12:12;87293.80;;;21.30
74536;BMP180;63013;51.104;-115.370;2023-06-24T13:14:40;87297.40;;;21.30
74536;BMP180;63013;51.104;-115.370;2023-06-24T13:17:07;87293.20;;;21.30
74536;BMP180;63013;51.104;-115.370;2023-06-24T13:19:34;87299.00;;;21.30
74536;BMP180;63013;51.104;-115.370;2023-06-24T13:22:01;87294.80;;;21.30
74536;BMP180;63013;51.104;-115.370;2023-06-24T13:24:28;87294.80;;;21.30
74536;BMP180;63013;51.104;-115.370;2023-06-24T13:26:55;87295.00;;;21.28
74536;BMP180;63013;51.104;-115.370;2023-06-24T13:29:22;87296.80;;;21.22
74536;BMP180;63013;51.104;-115.370;2023-06-24T13:31:49;87298.00;;;21.20
74536;BMP180;63013;51.104;-115.370;2023-06-24T13:34:16;87293.20;;;21.20
74536;BMP180;63013;51.104;-115.370;2023-06-24T13:36:43;87293.00;;;21.20
74536;BMP180;63013;51.104;-115.370;2023-06-24T13:39:10;87293.60;;;21.20
74536;BMP180;63013;51.104;-115.370;2023-06-24T13:41:45;87291.40;;;21.12
74536;BMP180;63013;51.104;-115.370;2023-06-24T13:44:11;87293.40;;;21.10